Time,TemperatureF,DewpointF,PressureIn,WindDirection,WindDirectionDegrees,WindSpeedMPH,WindSpeedGustMPH,Humidity,HourlyPrecipIn,Conditions,Clouds,dailyrainin,SoftwareType,DateUTC
2013-02-20 00:00:00,34.3,15.2,29.84,WSW,251,16.5,21.8,45,0.00,,SCT065,0.00,VWS V13.01,2013-02-20 05:00:00,
2013-02-20 00:05:00,34.3,15.2,29.84,West,268,10.3,13.1,45,0.00,,SCT065,0.00,VWS V13.01,2013-02-20 05:05:00,
2013-02-20 00:10:00,34.2,15.1,29.84,West,262,10.3,16.5,45,0.00,,SCT065,0.00,VWS V13.01,2013-02-20 05:10:00,
2013-02-20 00:15:00,34.0,14.9,29.84,West,272,10.3,10.3,45,0.00,,SCT065,0.00,VWS V13.01,2013-02-20 05:15:00,
2013-02-20 00:20:00,33.8,14.7,29.84,West,262,10.9,10.9,45,0.00,,CLR,0.00,VWS V13.01,2013-02-20 05:20:00,
2013-02-20 00:25:00,33.6,15.1,29.84,WSW,249,14.3,15.4,46,0.00,,CLR,0.00,VWS V13.01,2013-02-20 05:25:00,
2013-02-20 00:30:00,33.6,15.1,29.84,WSW,245,9.5,15.4,46,0.00,,CLR,0.00,VWS V13.01,2013-02-20 05:30:00,
2013-02-20 00:35:00,33.8,14.7,29.84,West,260,10.1,10.9,45,0.00,,CLR,0.00,VWS V13.01,2013-02-20 05:35:00,
2013-02-20 00:40:00,33.6,15.1,29.84,West,279,8.4,10.1,46,0.00,,CLR,0.00,VWS V13.01,2013-02-20 05:40:00,
2013-02-20 00:45:00,33.3,14.7,29.84,WSW,258,6.7,10.9,46,0.00,,SCT060,0.00,VWS V13.01,2013-02-20 05:45:00,
2013-02-20 00:50:00,33.3,14.7,29.84,West,270,10.1,13.7,46,0.00,,SCT060,0.00,VWS V13.01,2013-02-20 05:50:00,
2013-02-20 00:55:00,33.4,14.9,29.84,WSW,256,10.1,10.9,46,0.00,,SCT060,0.00,VWS V13.01,2013-02-20 05:55:00,
2013-02-20 01:00:00,33.4,14.9,29.84,WSW,255,10.1,10.3,46,0.00,,SCT060,0.00,VWS V13.01,2013-02-20 06:00:00,
2013-02-20 01:05:00,33.3,14.7,29.84,WSW,248,8.9,10.3,46,0.00,,CLR,0.00,VWS V13.01,2013-02-20 06:05:00,
2013-02-20 01:10:00,33.1,14.6,29.87,WSW,244,10.3,12.0,46,0.00,,CLR,0.00,VWS V13.01,2013-02-20 06:10:00,
2013-02-20 01:15:00,33.3,14.7,29.87,WNW,285,5.0,10.1,46,0.00,,CLR,0.00,VWS V13.01,2013-02-20 06:15:00,
2013-02-20 01:20:00,33.3,14.7,29.87,WNW,284,6.7,9.5,46,0.00,,CLR,0.00,VWS V13.01,2013-02-20 06:20:00,
2013-02-20 01:25:00,33.3,14.7,29.87,West,269,7.8,9.5,46,0.00,,CLR,0.00,VWS V13.01,2013-02-20 06:25:00,
2013-02-20 01:30:00,33.1,14.6,29.87,WSW,251,7.8,7.8,46,0.00,,CLR,0.00,VWS V13.01,2013-02-20 06:30:00,
2013-02-20 01:35:00,33.1,14.6,29.87,WSW,248,5.0,9.5,46,0.00,,CLR,0.00,VWS V13.01,2013-02-20 06:35:00,
2013-02-20 01:40:00,33.1,14.6,29.87,WSW,240,6.7,13.1,46,0.00,,CLR,0.00,VWS V13.01,2013-02-20 06:40:00,
2013-02-20 01:45:00,32.9,14.4,29.87,West,276,7.3,7.3,46,0.00,,CLR,0.00,VWS V13.01,2013-02-20 06:45:00,
2013-02-20 01:50:00,32.9,14.4,29.87,West,264,10.1,13.1,46,0.00,,CLR,0.00,VWS V13.01,2013-02-20 06:50:00,
2013-02-20 01:55:00,33.1,14.6,29.87,West,261,16.5,16.5,46,0.00,,CLR,0.00,VWS V13.01,2013-02-20 06:55:00,
2013-02-20 02:00:00,33.3,14.7,29.87,SW,229,6.7,10.9,46,0.00,,CLR,0.00,VWS V13.01,2013-02-20 07:00:00,
2013-02-20 02:05:00,33.3,14.7,29.87,West,259,9.5,9.5,46,0.00,,CLR,0.00,VWS V13.01,2013-02-20 07:05:00,
2013-02-20 02:10:00,33.1,14.6,29.87,WSW,256,15.9,15.9,46,0.00,,CLR,0.00,VWS V13.01,2013-02-20 07:10:00,
2013-02-20 02:15:00,33.1,14.6,29.87,West,274,7.8,14.3,46,0.00,,CLR,0.00,VWS V13.01,2013-02-20 07:15:00,
2013-02-20 02:20:00,33.1,14.6,29.87,West,276,19.3,19.3,46,0.00,,CLR,0.00,VWS V13.01,2013-02-20 07:20:00,
2013-02-20 02:25:00,32.9,14.4,29.87,West,261,6.7,7.8,46,0.00,,CLR,0.00,VWS V13.01,2013-02-20 07:25:00,
2013-02-20 02:30:00,32.7,14.2,29.87,WSW,255,10.9,19.3,46,0.00,,CLR,0.00,VWS V13.01,2013-02-20 07:30:00,
2013-02-20 02:35:00,32.5,14.1,29.87,West,278,10.3,10.3,46,0.00,,CLR,0.00,VWS V13.01,2013-02-20 07:35:00,
2013-02-20 02:40:00,32.5,14.1,29.87,WSW,253,9.5,10.3,46,0.00,,CLR,0.00,VWS V13.01,2013-02-20 07:40:00,
2013-02-20 02:45:00,32.2,13.7,29.87,West,273,7.8,10.1,46,0.00,,CLR,0.00,VWS V13.01,2013-02-20 07:45:00,
2013-02-20 02:50:00,32.0,13.6,29.87,West,279,9.5,14.3,46,0.00,,CLR,0.00,VWS V13.01,2013-02-20 07:50:00,
2013-02-20 02:55:00,31.6,13.2,29.87,West,266,7.8,15.9,46,0.00,,CLR,0.00,VWS V13.01,2013-02-20 07:55:00,
2013-02-20 03:00:00,31.5,13.1,29.87,West,276,4.5,6.7,46,0.00,,CLR,0.00,VWS V13.01,2013-02-20 08:00:00,
2013-02-20 03:05:00,31.1,12.8,29.87,WSW,252,9.5,12.6,46,0.00,,CLR,0.00,VWS V13.01,2013-02-20 08:05:00,
2013-02-20 03:10:00,31.1,12.8,29.87,West,279,13.1,15.9,46,0.00,,CLR,0.00,VWS V13.01,2013-02-20 08:10:00,
2013-02-20 03:15:00,30.9,12.6,29.87,West,277,7.8,9.5,46,0.00,,CLR,0.00,VWS V13.01,2013-02-20 08:15:00,
2013-02-20 03:20:00,30.7,12.4,29.87,West,261,13.7,15.4,46,0.00,,CLR,0.00,VWS V13.01,2013-02-20 08:20:00,
2013-02-20 03:25:00,30.6,12.3,29.87,WSW,255,10.1,12.6,46,0.00,,CLR,0.00,VWS V13.01,2013-02-20 08:25:00,
2013-02-20 03:30:00,30.6,12.3,29.87,West,274,7.8,10.3,46,0.00,,CLR,0.00,VWS V13.01,2013-02-20 08:30:00,
2013-02-20 03:35:00,30.2,11.9,29.87,West,262,10.3,15.4,46,0.00,,CLR,0.00,VWS V13.01,2013-02-20 08:35:00,
2013-02-20 03:40:00,30.2,11.9,29.87,West,268,6.7,10.9,46,0.00,,CLR,0.00,VWS V13.01,2013-02-20 08:40:00,
2013-02-20 03:45:00,30.0,11.8,29.87,West,278,7.8,7.8,46,0.00,,CLR,0.00,VWS V13.01,2013-02-20 08:45:00,
2013-02-20 03:50:00,29.8,11.6,29.87,West,272,7.8,13.1,46,0.00,,CLR,0.00,VWS V13.01,2013-02-20 08:50:00,
2013-02-20 03:55:00,29.8,11.6,29.87,West,274,9.5,10.1,46,0.00,,CLR,0.00,VWS V13.01,2013-02-20 08:55:00,
2013-02-20 04:00:00,29.7,11.4,29.87,West,274,10.1,12.6,46,0.00,,CLR,0.00,VWS V13.01,2013-02-20 09:00:00,
2013-02-20 04:05:00,29.7,11.4,29.87,West,267,7.8,9.5,46,0.00,,CLR,0.00,VWS V13.01,2013-02-20 09:05:00,
2013-02-20 04:10:00,29.5,11.3,29.87,WNW,292,6.7,11.5,46,0.00,,CLR,0.00,VWS V13.01,2013-02-20 09:10:00,
2013-02-20 04:15:00,29.5,11.3,29.87,West,259,12.6,15.9,46,0.00,,CLR,0.00,VWS V13.01,2013-02-20 09:15:00,
2013-02-20 04:20:00,29.5,11.3,29.87,West,264,9.5,12.6,46,0.00,,CLR,0.00,VWS V13.01,2013-02-20 09:20:00,
2013-02-20 04:25:00,29.5,11.3,29.87,West,272,7.8,15.9,46,0.00,,CLR,0.00,VWS V13.01,2013-02-20 09:25:00,
2013-02-20 04:30:00,29.5,11.3,29.87,West,259,6.7,10.3,46,0.00,,CLR,0.00,VWS V13.01,2013-02-20 09:30:00,
2013-02-20 04:35:00,29.5,11.3,29.87,WSW,238,5.0,7.3,46,0.00,,CLR,0.00,VWS V13.01,2013-02-20 09:35:00,
2013-02-20 04:40:00,29.1,10.9,29.87,WSW,252,10.1,10.9,46,0.00,,CLR,0.00,VWS V13.01,2013-02-20 09:40:00,
2013-02-20 04:45:00,29.1,10.9,29.87,WNW,300,7.3,10.1,46,0.00,,CLR,0.00,VWS V13.01,2013-02-20 09:45:00,
2013-02-20 04:50:00,28.8,10.6,29.87,West,272,6.2,6.7,46,0.00,,CLR,0.00,VWS V13.01,2013-02-20 09:50:00,
2013-02-20 04:55:00,28.6,10.4,29.87,WSW,256,3.4,3.9,46,0.00,,CLR,0.00,VWS V13.01,2013-02-20 09:55:00,
2013-02-20 05:00:00,28.4,10.3,29.87,WNW,295,4.5,4.5,46,0.00,,CLR,0.00,VWS V13.01,2013-02-20 10:00:00,
2013-02-20 05:05:00,28.2,10.1,29.87,West,277,0.0,0.0,46,0.00,,CLR,0.00,VWS V13.01,2013-02-20 10:05:00,
2013-02-20 05:10:00,27.9,9.8,29.90,WSW,257,6.2,7.3,46,0.00,,CLR,0.00,VWS V13.01,2013-02-20 10:10:00,
2013-02-20 05:15:00,27.7,9.6,29.90,West,262,7.8,12.0,46,0.00,,CLR,0.00,VWS V13.01,2013-02-20 10:15:00,
2013-02-20 05:20:00,27.7,9.6,29.90,WSW,245,0.0,0.0,46,0.00,,CLR,0.00,VWS V13.01,2013-02-20 10:20:00,
2013-02-20 05:25:00,27.7,9.6,29.90,WSW,245,0.0,2.8,46,0.00,,CLR,0.00,VWS V13.01,2013-02-20 10:25:00,
2013-02-20 05:30:00,27.1,9.1,29.90,WSW,245,0.0,0.0,46,0.00,,CLR,0.00,VWS V13.01,2013-02-20 10:30:00,
2013-02-20 05:35:00,27.0,8.9,29.90,North,350,5.0,5.6,46,0.00,,CLR,0.00,VWS V13.01,2013-02-20 10:35:00,
2013-02-20 05:40:00,26.4,8.9,29.90,WSW,253,0.0,2.8,47,0.00,,CLR,0.00,VWS V13.01,2013-02-20 10:40:00,
2013-02-20 05:45:00,26.2,8.8,29.90,NW,311,0.0,3.9,47,0.00,,CLR,0.00,VWS V13.01,2013-02-20 10:45:00,
2013-02-20 05:50:00,26.1,8.6,29.90,NNW,340,3.9,3.9,47,0.00,,CLR,0.00,VWS V13.01,2013-02-20 10:50:00,
2013-02-20 05:55:00,26.2,8.8,29.90,West,265,0.0,4.5,47,0.00,,CLR,0.00,VWS V13.01,2013-02-20 10:55:00,
2013-02-20 06:00:00,26.6,9.1,29.90,West,275,3.4,5.0,47,0.00,,CLR,0.00,VWS V13.01,2013-02-20 11:00:00,
2013-02-20 06:05:00,26.8,8.8,29.90,WSW,248,7.8,7.8,46,0.00,,CLR,0.00,VWS V13.01,2013-02-20 11:05:00,
2013-02-20 06:10:00,27.3,9.3,29.90,West,281,10.1,10.1,46,0.00,,CLR,0.00,VWS V13.01,2013-02-20 11:10:00,
2013-02-20 06:15:00,27.7,9.6,29.90,WSW,247,7.3,8.4,46,0.00,,CLR,0.00,VWS V13.01,2013-02-20 11:15:00,
2013-02-20 06:20:00,27.9,9.8,29.90,NW,305,13.1,13.7,46,0.00,,SCT050,0.00,VWS V13.01,2013-02-20 11:20:00,
2013-02-20 06:25:00,28.0,9.9,29.93,WNW,291,3.9,7.3,46,0.00,,SCT050,0.00,VWS V13.01,2013-02-20 11:25:00,
2013-02-20 06:30:00,28.0,9.9,29.93,West,266,8.4,10.9,46,0.00,,SCT050,0.00,VWS V13.01,2013-02-20 11:30:00,
2013-02-20 06:35:00,28.2,10.1,29.93,WSW,249,10.9,13.1,46,0.00,,SCT050,0.00,VWS V13.01,2013-02-20 11:35:00,
2013-02-20 06:40:00,28.2,10.1,29.93,West,265,6.7,8.9,46,0.00,,BKN050,0.00,VWS V13.01,2013-02-20 11:40:00,
2013-02-20 06:45:00,28.2,10.1,29.93,West,281,5.0,9.5,46,0.00,,BKN050,0.00,VWS V13.01,2013-02-20 11:45:00,
2013-02-20 06:50:00,28.2,10.1,29.93,WSW,249,6.7,8.4,46,0.00,,BKN050,0.00,VWS V13.01,2013-02-20 11:50:00,
2013-02-20 06:55:00,28.2,10.1,29.93,NW,315,5.0,5.0,46,0.00,,BKN050,0.00,VWS V13.01,2013-02-20 11:55:00,
2013-02-20 07:00:00,28.0,9.9,29.93,West,281,4.5,6.2,46,0.00,,BKN050,0.00,VWS V13.01,2013-02-20 12:00:00,
2013-02-20 07:05:00,27.9,9.8,29.93,WSW,247,6.7,10.1,46,0.00,,BKN050,0.00,VWS V13.01,2013-02-20 12:05:00,
2013-02-20 07:10:00,27.9,9.8,29.93,WNW,283,7.8,10.9,46,0.00,,BKN050,0.00,VWS V13.01,2013-02-20 12:10:00,
2013-02-20 07:15:00,27.9,9.8,29.93,WSW,258,8.9,8.9,46,0.00,,BKN050,0.00,VWS V13.01,2013-02-20 12:15:00,
2013-02-20 07:20:00,27.9,9.8,29.93,WNW,294,6.2,7.8,46,0.00,,SCT050,0.00,VWS V13.01,2013-02-20 12:20:00,
2013-02-20 07:25:00,28.0,9.9,29.93,West,265,7.8,8.4,46,0.00,,SCT050,0.00,VWS V13.01,2013-02-20 12:25:00,
2013-02-20 07:30:00,28.4,10.3,29.93,West,279,6.7,7.8,46,0.00,,SCT050,0.00,VWS V13.01,2013-02-20 12:30:00,
2013-02-20 07:35:00,28.8,10.6,29.93,West,260,7.3,13.1,46,0.00,,SCT050,0.00,VWS V13.01,2013-02-20 12:35:00,
2013-02-20 07:40:00,29.1,10.9,29.93,NNW,330,9.5,10.1,46,0.00,,CLR,0.00,VWS V13.01,2013-02-20 12:40:00,
2013-02-20 07:45:00,29.5,11.3,29.93,WSW,256,10.1,10.3,46,0.00,,CLR,0.00,VWS V13.01,2013-02-20 12:45:00,
2013-02-20 07:50:00,29.7,11.4,29.93,NNE,16,4.5,10.3,46,0.00,,CLR,0.00,VWS V13.01,2013-02-20 12:50:00,
2013-02-20 07:55:00,30.0,11.8,29.93,West,266,10.1,13.1,46,0.00,,CLR,0.00,VWS V13.01,2013-02-20 12:55:00,
2013-02-20 08:00:00,30.4,12.1,29.93,WSW,255,10.1,15.4,46,0.00,,CLR,0.00,VWS V13.01,2013-02-20 13:00:00,
2013-02-20 08:05:00,30.7,12.4,29.93,WNW,286,10.3,13.1,46,0.00,,CLR,0.00,VWS V13.01,2013-02-20 13:05:00,
2013-02-20 08:10:00,30.9,12.6,29.93,WSW,257,10.1,10.9,46,0.00,,CLR,0.00,VWS V13.01,2013-02-20 13:10:00,
2013-02-20 08:15:00,31.3,12.9,29.93,West,265,15.9,15.9,46,0.00,,CLR,0.00,VWS V13.01,2013-02-20 13:15:00,
2013-02-20 08:20:00,31.5,13.1,29.93,West,267,15.4,15.4,46,0.00,,CLR,0.00,VWS V13.01,2013-02-20 13:20:00,
2013-02-20 08:26:00,31.8,13.4,29.93,West,268,12.0,14.3,46,0.00,,CLR,0.00,VWS V13.01,2013-02-20 13:26:00,
2013-02-20 08:31:00,32.2,13.7,29.93,West,273,14.3,14.3,46,0.00,,CLR,0.00,VWS V13.01,2013-02-20 13:31:00,
2013-02-20 08:36:00,32.4,13.9,29.93,West,273,10.3,10.9,46,0.00,,CLR,0.00,VWS V13.01,2013-02-20 13:36:00,
2013-02-20 08:41:00,32.5,14.1,29.96,West,279,10.9,10.9,46,0.00,,CLR,0.00,VWS V13.01,2013-02-20 13:41:00,
2013-02-20 08:46:00,32.7,14.2,29.96,West,274,12.6,15.4,46,0.00,,CLR,0.00,VWS V13.01,2013-02-20 13:46:00,
2013-02-20 08:51:00,32.9,14.4,29.96,WSW,254,10.3,12.6,46,0.00,,CLR,0.00,VWS V13.01,2013-02-20 13:51:00,
2013-02-20 08:56:00,33.1,14.6,29.96,WNW,284,10.1,10.3,46,0.00,,CLR,0.00,VWS V13.01,2013-02-20 13:56:00,
2013-02-20 09:01:00,33.4,14.9,29.96,NW,315,12.6,12.6,46,0.00,,CLR,0.00,VWS V13.01,2013-02-20 14:01:00,
2013-02-20 09:06:00,33.8,14.7,29.96,West,263,9.5,9.5,45,0.00,,CLR,0.00,VWS V13.01,2013-02-20 14:06:00,
2013-02-20 09:11:00,34.2,15.1,29.96,West,265,8.9,9.5,45,0.00,,CLR,0.00,VWS V13.01,2013-02-20 14:11:00,
2013-02-20 09:16:00,34.5,15.4,29.96,West,263,10.3,10.9,45,0.00,,CLR,0.00,VWS V13.01,2013-02-20 14:16:00,
2013-02-20 09:21:00,34.9,15.7,29.96,WSW,237,7.3,10.9,45,0.00,,CLR,0.00,VWS V13.01,2013-02-20 14:21:00,
2013-02-20 09:26:00,35.1,15.9,29.96,WNW,290,3.9,6.7,45,0.00,,CLR,0.00,VWS V13.01,2013-02-20 14:26:00,
2013-02-20 09:31:00,34.9,15.7,29.96,West,261,6.7,9.5,45,0.00,,CLR,0.00,VWS V13.01,2013-02-20 14:31:00,
2013-02-20 09:36:00,35.2,16.0,29.96,WSW,254,10.1,10.1,45,0.00,,CLR,0.00,VWS V13.01,2013-02-20 14:36:00,
2013-02-20 09:41:00,35.4,16.2,29.96,NW,312,10.1,12.0,45,0.00,,CLR,0.00,VWS V13.01,2013-02-20 14:41:00,
2013-02-20 09:46:00,35.1,15.9,29.96,WNW,282,12.0,13.1,45,0.00,,CLR,0.00,VWS V13.01,2013-02-20 14:46:00,
2013-02-20 09:51:00,35.1,15.9,29.96,NW,306,15.9,15.9,45,0.00,,CLR,0.00,VWS V13.01,2013-02-20 14:51:00,
2013-02-20 09:56:00,34.9,15.7,29.96,West,281,7.8,10.9,45,0.00,,CLR,0.00,VWS V13.01,2013-02-20 14:56:00,
2013-02-20 10:01:00,34.9,15.7,29.96,West,271,13.7,13.7,45,0.00,,CLR,0.00,VWS V13.01,2013-02-20 15:01:00,
2013-02-20 10:06:00,35.1,15.9,29.96,West,259,13.1,16.5,45,0.00,,CLR,0.00,VWS V13.01,2013-02-20 15:06:00,
2013-02-20 10:11:00,35.1,15.9,29.96,West,271,10.9,16.5,45,0.00,,CLR,0.00,VWS V13.01,2013-02-20 15:11:00,
2013-02-20 10:16:00,35.4,16.2,29.96,West,271,8.9,13.1,45,0.00,,CLR,0.00,VWS V13.01,2013-02-20 15:16:00,
2013-02-20 10:21:00,35.8,16.5,29.96,SW,233,7.3,10.3,45,0.00,,CLR,0.00,VWS V13.01,2013-02-20 15:21:00,
2013-02-20 10:26:00,36.1,16.9,29.96,NNW,332,12.6,12.6,45,0.00,,CLR,0.00,VWS V13.01,2013-02-20 15:26:00,
2013-02-20 10:31:00,36.1,16.9,29.96,NW,323,10.9,13.1,45,0.00,,CLR,0.00,VWS V13.01,2013-02-20 15:31:00,
2013-02-20 10:36:00,36.5,17.2,29.96,WSW,255,12.0,12.6,45,0.00,,CLR,0.00,VWS V13.01,2013-02-20 15:36:00,
2013-02-20 10:41:00,36.5,17.2,29.96,WSW,249,7.8,13.7,45,0.00,,CLR,0.00,VWS V13.01,2013-02-20 15:41:00,
2013-02-20 10:46:00,36.7,17.4,29.96,West,274,7.3,7.8,45,0.00,,CLR,0.00,VWS V13.01,2013-02-20 15:46:00,
2013-02-20 10:51:00,37.0,17.7,29.96,WSW,252,13.7,13.7,45,0.00,,CLR,0.00,VWS V13.01,2013-02-20 15:51:00,
2013-02-20 10:56:00,37.0,17.7,29.96,WNW,286,8.4,12.6,45,0.00,,CLR,0.00,VWS V13.01,2013-02-20 15:56:00,
2013-02-20 11:01:00,37.0,17.7,29.96,SW,232,10.9,14.8,45,0.00,,CLR,0.00,VWS V13.01,2013-02-20 16:01:00,
2013-02-20 11:06:00,37.0,17.7,29.96,West,265,7.8,10.3,45,0.00,,CLR,0.00,VWS V13.01,2013-02-20 16:06:00,
2013-02-20 11:11:00,36.9,17.5,29.96,West,265,13.1,13.7,45,0.00,,CLR,0.00,VWS V13.01,2013-02-20 16:11:00,
2013-02-20 11:16:00,37.0,17.7,29.96,West,260,10.1,10.3,45,0.00,,CLR,0.00,VWS V13.01,2013-02-20 16:16:00,
2013-02-20 11:21:00,37.4,17.5,29.96,WSW,258,13.1,13.1,44,0.00,,CLR,0.00,VWS V13.01,2013-02-20 16:21:00,
2013-02-20 11:26:00,37.8,17.8,29.96,West,270,7.8,13.7,44,0.00,,CLR,0.00,VWS V13.01,2013-02-20 16:26:00,
2013-02-20 11:31:00,37.6,17.7,29.96,SW,222,10.3,13.7,44,0.00,,CLR,0.00,VWS V13.01,2013-02-20 16:31:00,
2013-02-20 11:36:00,37.6,17.7,29.96,North,6,10.3,10.3,44,0.00,,CLR,0.00,VWS V13.01,2013-02-20 16:36:00,
2013-02-20 11:41:00,37.6,17.7,29.96,West,279,10.3,13.7,44,0.00,,CLR,0.00,VWS V13.01,2013-02-20 16:41:00,
2013-02-20 11:46:00,38.1,18.1,29.96,West,260,9.5,13.1,44,0.00,,CLR,0.00,VWS V13.01,2013-02-20 16:46:00,
2013-02-20 11:51:00,38.5,18.5,29.96,West,259,10.1,10.1,44,0.00,,CLR,0.00,VWS V13.01,2013-02-20 16:51:00,
2013-02-20 11:56:00,38.8,18.8,29.96,WSW,251,12.6,13.1,44,0.00,,CLR,0.00,VWS V13.01,2013-02-20 16:56:00,
2013-02-20 12:01:00,38.8,18.8,29.96,NW,304,13.7,13.7,44,0.00,,CLR,0.00,VWS V13.01,2013-02-20 17:01:00,
2013-02-20 12:06:00,38.5,18.5,29.96,WNW,290,9.5,13.1,44,0.00,,CLR,0.00,VWS V13.01,2013-02-20 17:06:00,
2013-02-20 12:11:00,38.7,18.6,29.96,West,272,8.4,12.6,44,0.00,,CLR,0.00,VWS V13.01,2013-02-20 17:11:00,
2013-02-20 12:16:00,39.2,19.1,29.96,WNW,288,10.9,13.1,44,0.00,,CLR,0.00,VWS V13.01,2013-02-20 17:16:00,
2013-02-20 12:21:00,39.4,19.3,29.96,NNW,332,4.5,7.3,44,0.00,,CLR,0.00,VWS V13.01,2013-02-20 17:21:00,
2013-02-20 12:26:00,39.4,19.3,29.96,West,259,7.3,12.6,44,0.00,,CLR,0.00,VWS V13.01,2013-02-20 17:26:00,
2013-02-20 12:31:00,39.6,19.5,29.96,West,262,10.9,13.7,44,0.00,,CLR,0.00,VWS V13.01,2013-02-20 17:31:00,
2013-02-20 12:36:00,39.2,19.1,29.96,WNW,288,10.3,10.3,44,0.00,,CLR,0.00,VWS V13.01,2013-02-20 17:36:00,
2013-02-20 12:41:00,39.4,19.3,29.96,West,272,6.7,12.0,44,0.00,,CLR,0.00,VWS V13.01,2013-02-20 17:41:00,
2013-02-20 12:46:00,39.7,19.6,29.96,West,260,12.6,15.9,44,0.00,,CLR,0.00,VWS V13.01,2013-02-20 17:46:00,
2013-02-20 12:51:00,39.9,19.8,29.96,WSW,256,7.3,10.3,44,0.00,,CLR,0.00,VWS V13.01,2013-02-20 17:51:00,
2013-02-20 12:56:00,39.9,19.8,29.93,West,270,5.0,10.1,44,0.00,,CLR,0.00,VWS V13.01,2013-02-20 17:56:00,
2013-02-20 13:01:00,39.7,19.6,29.93,West,272,7.3,13.1,44,0.00,,CLR,0.00,VWS V13.01,2013-02-20 18:01:00,
2013-02-20 13:06:00,39.9,19.8,29.93,West,265,10.9,15.4,44,0.00,,CLR,0.00,VWS V13.01,2013-02-20 18:06:00,
2013-02-20 13:11:00,40.3,20.1,29.93,NW,304,7.8,10.9,44,0.00,,CLR,0.00,VWS V13.01,2013-02-20 18:11:00,
2013-02-20 13:16:00,40.3,20.1,29.93,WSW,258,3.9,13.7,44,0.00,,CLR,0.00,VWS V13.01,2013-02-20 18:16:00,
2013-02-20 13:21:00,40.1,20.0,29.93,West,261,10.3,10.3,44,0.00,,CLR,0.00,VWS V13.01,2013-02-20 18:21:00,
2013-02-20 13:26:00,40.3,20.1,29.93,WSW,257,10.3,15.9,44,0.00,,CLR,0.00,VWS V13.01,2013-02-20 18:26:00,
2013-02-20 13:31:00,40.1,20.0,29.93,North,0,9.5,12.6,44,0.00,,CLR,0.00,VWS V13.01,2013-02-20 18:31:00,
2013-02-20 13:36:00,40.3,20.1,29.93,WNW,295,12.0,12.0,44,0.00,,CLR,0.00,VWS V13.01,2013-02-20 18:36:00,
2013-02-20 13:41:00,40.5,20.3,29.96,NW,323,9.5,16.5,44,0.00,,CLR,0.00,VWS V13.01,2013-02-20 18:41:00,
2013-02-20 13:46:00,40.1,20.0,29.96,WSW,241,10.1,10.1,44,0.00,,CLR,0.00,VWS V13.01,2013-02-20 18:46:00,
2013-02-20 13:51:00,40.3,20.1,29.96,West,275,15.9,17.6,44,0.00,,CLR,0.00,VWS V13.01,2013-02-20 18:51:00,
2013-02-20 13:56:00,40.3,20.1,29.96,West,276,10.3,13.7,44,0.00,,CLR,0.00,VWS V13.01,2013-02-20 18:56:00,
2013-02-20 14:01:00,40.5,20.3,29.96,West,265,10.9,15.9,44,0.00,,CLR,0.00,VWS V13.01,2013-02-20 19:01:00,
2013-02-20 14:06:00,40.3,20.1,29.96,West,267,10.3,19.3,44,0.00,,CLR,0.00,VWS V13.01,2013-02-20 19:06:00,
2013-02-20 14:11:00,40.1,20.0,29.93,West,265,7.8,17.1,44,0.00,,CLR,0.00,VWS V13.01,2013-02-20 19:11:00,
2013-02-20 14:16:00,39.9,19.8,29.93,West,265,14.3,17.1,44,0.00,,CLR,0.00,VWS V13.01,2013-02-20 19:16:00,
2013-02-20 14:21:00,39.9,19.8,29.93,West,269,7.8,13.1,44,0.00,,CLR,0.00,VWS V13.01,2013-02-20 19:21:00,
2013-02-20 14:26:00,39.9,19.8,29.93,West,267,6.7,10.3,44,0.00,,CLR,0.00,VWS V13.01,2013-02-20 19:26:00,
2013-02-20 14:31:00,39.9,19.8,29.93,SW,232,9.5,10.9,44,0.00,,CLR,0.00,VWS V13.01,2013-02-20 19:31:00,
2013-02-20 14:36:00,40.1,20.0,29.93,West,279,16.5,16.5,44,0.00,,CLR,0.00,VWS V13.01,2013-02-20 19:36:00,
2013-02-20 14:41:00,39.9,19.8,29.93,WSW,256,7.3,13.7,44,0.00,,CLR,0.00,VWS V13.01,2013-02-20 19:41:00,
2013-02-20 14:46:00,39.6,19.5,29.93,NW,306,13.7,13.7,44,0.00,,CLR,0.00,VWS V13.01,2013-02-20 19:46:00,
2013-02-20 14:51:00,39.6,19.5,29.93,West,280,9.5,13.1,44,0.00,,CLR,0.00,VWS V13.01,2013-02-20 19:51:00,
2013-02-20 14:56:00,39.7,19.6,29.96,WNW,296,15.4,15.4,44,0.00,,CLR,0.00,VWS V13.01,2013-02-20 19:56:00,
2013-02-20 15:01:00,39.7,19.6,29.96,WSW,248,10.1,15.4,44,0.00,,CLR,0.00,VWS V13.01,2013-02-20 20:01:00,
2013-02-20 15:06:00,39.9,19.8,29.96,WSW,256,6.7,15.9,44,0.00,,CLR,0.00,VWS V13.01,2013-02-20 20:06:00,
2013-02-20 15:11:00,39.4,19.3,29.96,West,275,6.7,10.9,44,0.00,,CLR,0.00,VWS V13.01,2013-02-20 20:11:00,
2013-02-20 15:16:00,39.2,19.1,29.96,WNW,286,9.5,11.5,44,0.00,,CLR,0.00,VWS V13.01,2013-02-20 20:16:00,
2013-02-20 15:21:00,39.0,19.0,29.96,WSW,257,6.7,13.1,44,0.00,,CLR,0.00,VWS V13.01,2013-02-20 20:21:00,
2013-02-20 15:26:00,39.0,19.0,29.96,WNW,298,7.3,10.9,44,0.00,,CLR,0.00,VWS V13.01,2013-02-20 20:26:00,
2013-02-20 15:31:00,39.2,19.1,29.96,WSW,251,4.5,15.4,44,0.00,,CLR,0.00,VWS V13.01,2013-02-20 20:31:00,
2013-02-20 15:36:00,38.8,18.8,29.96,West,272,13.1,13.1,44,0.00,,CLR,0.00,VWS V13.01,2013-02-20 20:36:00,
2013-02-20 15:41:00,38.3,16.7,29.96,North,0,13.1,13.7,41,0.00,,CLR,0.00,VWS V13.01,2013-02-20 20:41:00,
2013-02-20 15:46:00,38.1,16.5,29.96,NE,41,21.3,21.3,41,0.00,,CLR,0.00,VWS V13.01,2013-02-20 20:46:00,
2013-02-20 15:51:00,37.9,16.4,29.99,NNW,339,5.0,7.8,41,0.00,,CLR,0.00,VWS V13.01,2013-02-20 20:51:00,
2013-02-20 15:56:00,37.8,16.2,29.99,SSW,204,7.8,12.6,41,0.00,,CLR,0.00,VWS V13.01,2013-02-20 20:56:00,
2013-02-20 16:01:00,37.9,16.4,29.99,West,278,10.3,17.1,41,0.00,,CLR,0.00,VWS V13.01,2013-02-20 21:01:00,
2013-02-20 16:06:00,37.8,16.2,29.99,WSW,257,4.5,10.3,41,0.00,,CLR,0.00,VWS V13.01,2013-02-20 21:06:00,
2013-02-20 16:11:00,37.8,16.2,29.96,WSW,258,12.6,13.1,41,0.00,,CLR,0.00,VWS V13.01,2013-02-20 21:11:00,
2013-02-20 16:16:00,37.6,16.0,29.96,WNW,286,15.4,15.4,41,0.00,,CLR,0.00,VWS V13.01,2013-02-20 21:16:00,
2013-02-20 16:21:00,37.4,15.9,29.96,West,273,10.3,12.6,41,0.00,,CLR,0.00,VWS V13.01,2013-02-20 21:21:00,
2013-02-20 16:26:00,37.0,16.1,29.96,WSW,250,13.7,13.7,42,0.00,,CLR,0.00,VWS V13.01,2013-02-20 21:26:00,
2013-02-20 16:31:00,37.0,16.1,29.96,WSW,257,7.8,13.1,42,0.00,,CLR,0.00,VWS V13.01,2013-02-20 21:31:00,
2013-02-20 16:36:00,36.9,15.9,29.99,West,278,13.7,15.9,42,0.00,,CLR,0.00,VWS V13.01,2013-02-20 21:36:00,
2013-02-20 16:41:00,36.3,15.4,29.99,West,264,15.4,15.9,42,0.00,,CLR,0.00,VWS V13.01,2013-02-20 21:41:00,
2013-02-20 16:46:00,35.8,14.9,29.99,WSW,242,15.4,15.4,42,0.00,,CLR,0.00,VWS V13.01,2013-02-20 21:46:00,
2013-02-20 16:51:00,35.6,14.8,29.99,West,271,14.8,14.8,42,0.00,,CLR,0.00,VWS V13.01,2013-02-20 21:51:00,
2013-02-20 16:56:00,35.6,14.8,29.99,West,265,10.3,15.9,42,0.00,,CLR,0.00,VWS V13.01,2013-02-20 21:56:00,
2013-02-20 17:01:00,35.4,14.6,29.99,West,277,13.1,13.1,42,0.00,,CLR,0.00,VWS V13.01,2013-02-20 22:01:00,
2013-02-20 17:06:00,35.2,14.5,29.99,West,271,12.6,13.7,42,0.00,,CLR,0.00,VWS V13.01,2013-02-20 22:06:00,
2013-02-20 17:11:00,34.5,13.8,29.99,NW,308,10.9,13.7,42,0.00,,CLR,0.00,VWS V13.01,2013-02-20 22:11:00,
2013-02-20 17:16:00,34.0,13.3,29.99,West,273,12.6,16.5,42,0.00,,CLR,0.00,VWS V13.01,2013-02-20 22:16:00,
2013-02-20 17:21:00,33.6,13.5,29.99,West,267,12.6,13.1,43,0.00,,CLR,0.00,VWS V13.01,2013-02-20 22:21:00,
2013-02-20 17:26:00,33.3,13.2,29.99,WNW,302,10.1,14.3,43,0.00,,CLR,0.00,VWS V13.01,2013-02-20 22:26:00,
2013-02-20 17:31:00,32.9,12.9,29.99,West,265,10.3,13.7,43,0.00,,CLR,0.00,VWS V13.01,2013-02-20 22:31:00,
2013-02-20 17:36:00,32.5,12.5,30.02,NW,305,7.8,15.4,43,0.00,,CLR,0.00,VWS V13.01,2013-02-20 22:36:00,
2013-02-20 17:41:00,32.2,12.2,30.02,West,266,6.7,9.5,43,0.00,,CLR,0.00,VWS V13.01,2013-02-20 22:41:00,
2013-02-20 17:46:00,31.8,11.9,30.02,WNW,287,6.7,10.3,43,0.00,,CLR,0.00,VWS V13.01,2013-02-20 22:46:00,
2013-02-20 17:51:00,31.3,11.4,30.02,WSW,241,6.2,10.1,43,0.00,,CLR,0.00,VWS V13.01,2013-02-20 22:51:00,
2013-02-20 17:56:00,30.9,9.4,30.02,North,8,4.5,5.0,40,0.00,,CLR,0.00,VWS V13.01,2013-02-20 22:56:00,
2013-02-20 18:01:00,30.7,9.3,30.02,North,0,4.5,7.3,40,0.00,,CLR,0.00,VWS V13.01,2013-02-20 23:01:00,
2013-02-20 18:06:00,30.6,9.1,30.02,North,0,3.4,6.7,40,0.00,,CLR,0.00,VWS V13.01,2013-02-20 23:06:00,
2013-02-20 18:11:00,30.4,9.0,30.02,West,272,7.3,9.5,40,0.00,,CLR,0.00,VWS V13.01,2013-02-20 23:11:00,
2013-02-20 18:16:00,30.2,8.8,30.02,WSW,256,4.5,10.1,40,0.00,,CLR,0.00,VWS V13.01,2013-02-20 23:16:00,
2013-02-20 18:21:00,30.0,8.6,30.05,North,357,3.4,7.3,40,0.00,,CLR,0.00,VWS V13.01,2013-02-20 23:21:00,
2013-02-20 18:26:00,29.7,8.3,30.05,NW,307,4.5,7.3,40,0.00,,CLR,0.00,VWS V13.01,2013-02-20 23:26:00,
2013-02-20 18:31:00,29.5,8.1,30.05,NNE,12,6.7,7.3,40,0.00,,CLR,0.00,VWS V13.01,2013-02-20 23:31:00,
2013-02-20 18:36:00,29.3,8.0,30.05,West,267,3.9,4.5,40,0.00,,CLR,0.00,VWS V13.01,2013-02-20 23:36:00,
2013-02-20 18:41:00,28.9,7.7,30.05,North,6,4.5,6.7,40,0.00,,CLR,0.00,VWS V13.01,2013-02-20 23:41:00,
2013-02-20 18:46:00,28.9,7.7,30.05,WSW,238,7.3,9.5,40,0.00,,CLR,0.00,VWS V13.01,2013-02-20 23:46:00,
2013-02-20 18:51:00,28.8,7.5,30.05,WNW,287,0.0,3.4,40,0.00,,CLR,0.00,VWS V13.01,2013-02-20 23:51:00,
2013-02-20 18:56:00,28.6,7.3,30.05,WNW,283,6.2,7.8,40,0.00,,CLR,0.00,VWS V13.01,2013-02-20 23:56:00,
2013-02-20 19:01:00,28.4,7.7,30.05,West,266,4.5,6.7,41,0.00,,CLR,0.00,VWS V13.01,2013-02-21 00:01:00,
2013-02-20 19:06:00,28.0,7.4,30.05,West,268,4.5,7.3,41,0.00,,CLR,0.00,VWS V13.01,2013-02-21 00:06:00,
2013-02-20 19:11:00,28.0,7.4,30.05,WNW,295,5.6,7.8,41,0.00,,CLR,0.00,VWS V13.01,2013-02-21 00:11:00,
2013-02-20 19:16:00,28.0,7.4,30.05,West,276,6.7,7.3,41,0.00,,CLR,0.00,VWS V13.01,2013-02-21 00:16:00,
2013-02-20 19:21:00,28.2,7.6,30.05,West,281,4.5,7.8,41,0.00,,CLR,0.00,VWS V13.01,2013-02-21 00:21:00,
2013-02-20 19:26:00,28.2,7.6,30.05,WNW,286,7.8,7.8,41,0.00,,CLR,0.00,VWS V13.01,2013-02-21 00:26:00,
2013-02-20 19:31:00,28.0,7.4,30.05,West,268,4.5,7.8,41,0.00,,CLR,0.00,VWS V13.01,2013-02-21 00:31:00,
2013-02-20 19:36:00,27.9,7.2,30.08,WSW,242,6.7,7.3,41,0.00,,CLR,0.00,VWS V13.01,2013-02-21 00:36:00,
2013-02-20 19:41:00,27.9,7.2,30.08,West,264,4.5,6.7,41,0.00,,CLR,0.00,VWS V13.01,2013-02-21 00:41:00,
2013-02-20 19:46:00,27.7,7.1,30.08,WNW,296,4.5,6.2,41,0.00,,CLR,0.00,VWS V13.01,2013-02-21 00:46:00,
2013-02-20 19:51:00,27.5,6.9,30.08,West,271,3.9,4.5,41,0.00,,CLR,0.00,VWS V13.01,2013-02-21 00:51:00,
2013-02-20 19:56:00,27.1,6.6,30.08,WNW,283,5.0,5.0,41,0.00,,CLR,0.00,VWS V13.01,2013-02-21 00:56:00,
2013-02-20 20:01:00,27.0,6.4,30.08,West,270,5.0,5.6,41,0.00,,CLR,0.00,VWS V13.01,2013-02-21 01:01:00,
2013-02-20 20:06:00,26.8,6.2,30.08,WNW,294,5.0,6.7,41,0.00,,CLR,0.00,VWS V13.01,2013-02-21 01:06:00,
2013-02-20 20:11:00,26.6,6.1,30.08,West,266,3.9,5.0,41,0.00,,CLR,0.00,VWS V13.01,2013-02-21 01:11:00,
2013-02-20 20:17:00,26.2,5.8,30.08,West,273,7.3,7.3,41,0.00,,CLR,0.00,VWS V13.01,2013-02-21 01:17:00,
2013-02-20 20:22:00,26.4,5.9,30.08,West,260,5.0,7.8,41,0.00,,CLR,0.00,VWS V13.01,2013-02-21 01:22:00,
2013-02-20 20:27:00,26.6,6.1,30.08,West,272,9.5,10.1,41,0.00,,CLR,0.00,VWS V13.01,2013-02-21 01:27:00,
2013-02-20 20:32:00,26.8,6.2,30.08,WNW,290,6.7,7.8,41,0.00,,CLR,0.00,VWS V13.01,2013-02-21 01:32:00,
2013-02-20 20:37:00,26.6,6.1,30.08,West,277,6.2,7.3,41,0.00,,CLR,0.00,VWS V13.01,2013-02-21 01:37:00,
2013-02-20 20:42:00,26.4,5.9,30.08,WNW,289,8.9,10.1,41,0.00,,CLR,0.00,VWS V13.01,2013-02-21 01:42:00,
2013-02-20 20:47:00,26.6,6.1,30.08,West,276,7.8,10.3,41,0.00,,CLR,0.00,VWS V13.01,2013-02-21 01:47:00,
2013-02-20 20:52:00,26.6,6.1,30.08,NNW,327,5.0,7.8,41,0.00,,CLR,0.00,VWS V13.01,2013-02-21 01:52:00,
2013-02-20 20:57:00,26.4,5.9,30.08,West,267,10.1,13.7,41,0.00,,CLR,0.00,VWS V13.01,2013-02-21 01:57:00,
2013-02-20 21:02:00,26.4,5.9,30.08,WNW,288,5.6,7.8,41,0.00,,CLR,0.00,VWS V13.01,2013-02-21 02:02:00,
2013-02-20 21:07:00,26.4,5.9,30.08,West,277,8.4,10.9,41,0.00,,CLR,0.00,VWS V13.01,2013-02-21 02:07:00,
2013-02-20 21:12:00,26.6,6.1,30.08,West,272,8.9,10.1,41,0.00,,CLR,0.00,VWS V13.01,2013-02-21 02:12:00,
2013-02-20 21:17:00,26.6,6.1,30.08,West,261,6.2,13.1,41,0.00,,CLR,0.00,VWS V13.01,2013-02-21 02:17:00,
2013-02-20 21:22:00,26.6,6.1,30.08,West,263,4.5,6.7,41,0.00,,CLR,0.00,VWS V13.01,2013-02-21 02:22:00,
2013-02-20 21:27:00,26.6,6.1,30.08,West,263,7.3,8.4,41,0.00,,CLR,0.00,VWS V13.01,2013-02-21 02:27:00,
2013-02-20 21:32:00,26.6,6.1,30.08,West,266,4.5,7.8,41,0.00,,CLR,0.00,VWS V13.01,2013-02-21 02:32:00,
2013-02-20 21:37:00,26.6,6.1,30.08,WSW,256,3.9,7.3,41,0.00,,CLR,0.00,VWS V13.01,2013-02-21 02:37:00,
2013-02-20 21:42:00,26.4,5.9,30.08,NW,306,10.3,10.3,41,0.00,,CLR,0.00,VWS V13.01,2013-02-21 02:42:00,
2013-02-20 21:47:00,26.2,5.8,30.08,WNW,291,7.3,9.5,41,0.00,,CLR,0.00,VWS V13.01,2013-02-21 02:47:00,
2013-02-20 21:52:00,26.1,5.6,30.08,West,266,10.9,10.9,41,0.00,,CLR,0.00,VWS V13.01,2013-02-21 02:52:00,
2013-02-20 21:57:00,26.2,5.8,30.08,NE,39,4.5,7.3,41,0.00,,CLR,0.00,VWS V13.01,2013-02-21 02:57:00,
2013-02-20 22:02:00,26.2,5.8,30.08,North,353,6.2,7.8,41,0.00,,CLR,0.00,VWS V13.01,2013-02-21 03:02:00,
2013-02-20 22:07:00,26.2,7.3,30.11,North,11,3.4,6.7,44,0.00,,CLR,0.00,VWS V13.01,2013-02-21 03:07:00,
2013-02-20 22:12:00,26.1,5.6,30.11,West,267,5.0,7.8,41,0.00,,CLR,0.00,VWS V13.01,2013-02-21 03:12:00,
2013-02-20 22:17:00,25.9,5.4,30.11,West,261,4.5,4.5,41,0.00,,CLR,0.00,VWS V13.01,2013-02-21 03:17:00,
2013-02-20 22:22:00,25.5,5.1,30.08,WNW,285,6.7,6.7,41,0.00,,CLR,0.00,VWS V13.01,2013-02-21 03:22:00,
2013-02-20 22:27:00,25.3,4.9,30.08,West,276,6.2,7.8,41,0.00,,CLR,0.00,VWS V13.01,2013-02-21 03:27:00,
2013-02-20 22:32:00,25.3,4.9,30.08,West,276,3.9,5.0,41,0.00,,CLR,0.00,VWS V13.01,2013-02-21 03:32:00,
2013-02-20 22:37:00,25.2,4.8,30.08,West,280,6.2,6.2,41,0.00,,CLR,0.00,VWS V13.01,2013-02-21 03:37:00,
2013-02-20 22:42:00,25.0,4.6,30.08,West,272,5.0,7.8,41,0.00,,CLR,0.00,VWS V13.01,2013-02-21 03:42:00,
2013-02-20 22:47:00,24.6,4.8,30.08,West,262,0.0,0.0,42,0.00,,CLR,0.00,VWS V13.01,2013-02-21 03:47:00,
2013-02-20 22:52:00,24.3,4.5,30.08,West,260,0.0,3.9,42,0.00,,CLR,0.00,VWS V13.01,2013-02-21 03:52:00,
2013-02-20 22:57:00,24.1,4.3,30.08,West,272,5.0,6.2,42,0.00,,CLR,0.00,VWS V13.01,2013-02-21 03:57:00,
2013-02-20 23:02:00,24.1,4.3,30.08,West,276,4.5,6.7,42,0.00,,CLR,0.00,VWS V13.01,2013-02-21 04:02:00,
2013-02-20 23:07:00,24.3,4.5,30.08,West,279,3.4,4.5,42,0.00,,CLR,0.00,VWS V13.01,2013-02-21 04:07:00,
2013-02-20 23:12:00,23.9,4.2,30.08,NW,314,0.0,0.0,42,0.00,,CLR,0.00,VWS V13.01,2013-02-21 04:12:00,
2013-02-20 23:17:00,23.7,4.0,30.08,NW,314,0.0,0.0,42,0.00,,CLR,0.00,VWS V13.01,2013-02-21 04:17:00,
2013-02-20 23:22:00,23.4,3.7,30.08,WNW,292,3.4,3.9,42,0.00,,CLR,0.00,VWS V13.01,2013-02-21 04:22:00,
2013-02-20 23:27:00,22.8,3.2,30.08,NW,308,0.0,3.4,42,0.00,,CLR,0.00,VWS V13.01,2013-02-21 04:27:00,
2013-02-20 23:32:00,22.6,3.0,30.08,NW,308,0.0,0.0,42,0.00,,CLR,0.00,VWS V13.01,2013-02-21 04:32:00,
2013-02-20 23:37:00,22.3,2.7,30.08,NW,321,0.0,0.0,42,0.00,,CLR,0.00,VWS V13.01,2013-02-21 04:37:00,
2013-02-20 23:42:00,22.1,4.0,30.08,NW,326,0.0,0.0,45,0.00,,CLR,0.00,VWS V13.01,2013-02-21 04:42:00,
2013-02-20 23:47:00,22.1,4.0,30.08,NNW,327,0.0,0.0,45,0.00,,CLR,0.00,VWS V13.01,2013-02-21 04:47:00,
2013-02-20 23:52:00,22.3,4.2,30.08,NNW,327,0.0,0.0,45,0.00,,CLR,0.00,VWS V13.01,2013-02-21 04:52:00,
2013-02-20 23:57:00,22.1,4.0,30.08,NW,314,3.9,3.9,45,0.00,,CLR,0.00,VWS V13.01,2013-02-21 04:57:00,